createdAt,value
2018-09-02T00:00:04.106Z,94.10
2018-09-02T00:02:34.246Z,94.30
2018-09-02T00:05:03.535Z,94.80
2018-09-02T00:07:34.193Z,94.60
2018-09-02T00:10:04.858Z,94.50
2018-09-02T00:12:34.177Z,94.40
2018-09-02T00:15:03.334Z,95.00
2018-09-02T00:17:34.700Z,95.10
2018-09-02T00:20:03.901Z,94.30
2018-09-02T00:22:32.881Z,93.90
2018-09-02T00:25:01.930Z,94.20
2018-09-02T00:27:31.094Z,94.50
2018-09-02T00:30:00.098Z,94.40
2018-09-02T00:32:29.090Z,94.60
2018-09-02T00:34:58.097Z,94.40
2018-09-02T00:37:27.493Z,94.80
2018-09-02T00:39:56.557Z,94.90
2018-09-02T00:42:25.565Z,94.90
2018-09-02T00:44:54.664Z,95.10
2018-09-02T00:47:23.669Z,95.40
2018-09-02T00:49:52.781Z,95.50
2018-09-02T00:52:21.766Z,95.60
2018-09-02T00:54:50.845Z,94.90
2018-09-02T00:57:25.863Z,94.60
2018-09-02T00:59:57.719Z,94.60
2018-09-02T01:02:26.840Z,94.80
2018-09-02T01:04:56.052Z,94.30
2018-09-02T01:07:25.054Z,94.50
2018-09-02T01:09:54.116Z,94.30
2018-09-02T01:12:24.180Z,94.40
2018-09-02T01:14:54.276Z,95.10
2018-09-02T01:17:23.270Z,94.90
2018-09-02T01:19:53.074Z,94.60
2018-09-02T01:22:22.121Z,95.10
2018-09-02T01:24:51.133Z,94.30
2018-09-02T01:27:20.142Z,94.50
2018-09-02T01:29:49.154Z,94.70
2018-09-02T01:32:19.657Z,94.90
2018-09-02T01:34:49.317Z,95.10
2018-09-02T01:37:18.410Z,95.00
2018-09-02T01:39:47.861Z,95.10
2018-09-02T01:42:16.875Z,95.50
2018-09-02T01:44:45.897Z,95.70
2018-09-02T01:47:14.958Z,95.10
2018-09-02T01:49:43.988Z,94.40
2018-09-02T01:52:13.004Z,94.70
2018-09-02T01:54:42.012Z,95.00
2018-09-02T01:57:11.033Z,95.00
2018-09-02T01:59:40.026Z,95.20
2018-09-02T02:02:09.036Z,95.30
2018-09-02T02:04:40.989Z,95.70
2018-09-02T02:07:11.765Z,96.00
2018-09-02T02:09:41.021Z,95.50
2018-09-02T02:12:10.109Z,95.60
2018-09-02T02:14:40.134Z,96.00
2018-09-02T02:17:09.263Z,95.90
2018-09-02T02:19:38.327Z,95.70
2018-09-02T02:22:08.434Z,95.00
2018-09-02T02:24:38.957Z,95.00
2018-09-02T02:27:08.033Z,95.10
2018-09-02T02:29:37.182Z,94.70
2018-09-02T02:32:06.296Z,94.90
2018-09-02T02:34:35.373Z,95.10
2018-09-02T02:37:05.224Z,94.40
2018-09-02T02:39:34.274Z,95.00
2018-09-02T02:42:04.152Z,95.20
2018-09-02T02:44:33.154Z,95.80
2018-09-02T02:47:02.506Z,96.30
2018-09-02T02:49:31.494Z,96.10
2018-09-02T02:52:00.567Z,96.40
2018-09-02T02:54:29.656Z,96.00
2018-09-02T02:56:58.682Z,95.80
2018-09-02T02:59:27.750Z,95.60
2018-09-02T03:01:57.585Z,95.50
2018-09-02T03:04:26.574Z,95.60
2018-09-02T03:06:55.611Z,95.50
2018-09-02T03:09:26.504Z,94.70
2018-09-02T03:11:55.761Z,94.50
2018-09-02T03:14:24.763Z,94.80
2018-09-02T03:16:53.833Z,94.90
2018-09-02T03:19:22.830Z,95.40
2018-09-02T03:21:53.050Z,95.10
2018-09-02T03:24:22.744Z,94.80
2018-09-02T03:26:51.768Z,95.30
2018-09-02T03:29:20.775Z,95.90
2018-09-02T03:31:49.808Z,96.00
2018-09-02T03:34:18.800Z,96.30
2018-09-02T03:36:47.861Z,95.90
2018-09-02T03:39:16.869Z,96.10
2018-09-02T03:41:45.882Z,95.50
2018-09-02T03:44:14.909Z,96.50
2018-09-02T03:46:43.934Z,96.60
2018-09-02T03:49:12.985Z,96.80
2018-09-02T03:51:42.062Z,97.20
2018-09-02T03:54:11.066Z,97.50
2018-09-02T03:56:40.088Z,97.80
2018-09-02T03:59:09.115Z,97.60
2018-09-02T04:01:38.164Z,97.50
2018-09-02T04:04:07.304Z,97.90
2018-09-02T04:06:36.526Z,97.80
2018-09-02T04:09:10.115Z,98.20
2018-09-02T04:11:39.416Z,98.10
2018-09-02T04:14:08.420Z,98.30
2018-09-02T04:16:37.458Z,97.70
2018-09-02T04:19:06.493Z,97.60
2018-09-02T04:21:35.494Z,97.70
2018-09-02T04:24:04.521Z,97.80
2018-09-02T04:26:34.284Z,97.70
2018-09-02T04:29:03.434Z,97.60
2018-09-02T04:31:32.461Z,97.50
2018-09-02T04:34:01.477Z,97.50
2018-09-02T04:36:30.473Z,97.50
2018-09-02T04:38:59.602Z,97.80
2018-09-02T04:41:28.639Z,98.00
2018-09-02T04:43:57.682Z,98.20
2018-09-02T04:46:26.712Z,98.20
2018-09-02T04:48:55.737Z,98.40
2018-09-02T04:51:24.726Z,98.40
2018-09-02T04:53:53.752Z,98.40
2018-09-02T04:56:22.787Z,98.30
2018-09-02T04:58:51.873Z,98.00
2018-09-02T05:01:20.862Z,97.80
2018-09-02T05:03:49.886Z,97.60
2018-09-02T05:06:18.892Z,97.50
2018-09-02T05:08:47.901Z,97.60
2018-09-02T05:11:17.500Z,97.50
2018-09-02T05:13:46.510Z,97.50
2018-09-02T05:16:15.491Z,97.30
2018-09-02T05:18:44.492Z,97.20
2018-09-02T05:21:13.500Z,96.80
2018-09-02T05:23:42.600Z,96.60
2018-09-02T05:26:12.087Z,96.40
2018-09-02T05:28:41.113Z,96.30
2018-09-02T05:31:10.104Z,96.00
2018-09-02T05:33:39.149Z,95.90
2018-09-02T05:36:08.206Z,95.70
2018-09-02T05:38:37.643Z,95.60
2018-09-02T05:41:06.603Z,95.60
2018-09-02T05:43:35.600Z,95.50
2018-09-02T05:46:04.834Z,95.40
2018-09-02T05:48:34.449Z,95.20
2018-09-02T05:51:03.401Z,95.10
2018-09-02T05:53:32.400Z,94.60
2018-09-02T05:56:01.333Z,94.20
2018-09-02T05:58:30.956Z,93.70
2018-09-02T06:00:59.937Z,92.80
2018-09-02T06:03:28.880Z,91.40
2018-09-02T06:05:57.824Z,90.00
2018-09-02T06:08:27.385Z,86.10
2018-09-02T06:10:56.345Z,82.60
2018-09-02T06:13:25.326Z,79.80
2018-09-02T06:15:54.238Z,78.30
2018-09-02T06:18:23.183Z,76.60
2018-09-02T06:20:52.170Z,74.70
2018-09-02T06:23:21.186Z,72.30
2018-09-02T06:25:50.129Z,70.20
2018-09-02T06:28:19.116Z,68.00
2018-09-02T06:30:48.065Z,64.90
2018-09-02T06:33:17.526Z,59.80
2018-09-02T06:35:46.513Z,59.50
2018-09-02T06:38:15.509Z,57.60
2018-09-02T06:40:44.428Z,56.30
2018-09-02T06:43:18.569Z,55.00
2018-09-02T06:45:48.045Z,53.80
2018-09-02T06:48:20.966Z,53.70
2018-09-02T06:50:50.219Z,53.60
2018-09-02T06:53:19.181Z,53.50
2018-09-02T06:55:48.153Z,52.70
2018-09-02T06:58:17.116Z,51.50
2018-09-02T07:00:46.038Z,50.40
2018-09-02T07:03:15.013Z,48.90
2018-09-02T07:05:45.898Z,47.40
2018-09-02T07:08:14.969Z,45.40
2018-09-02T07:10:43.933Z,44.10
2018-09-02T07:13:12.950Z,42.80
2018-09-02T07:15:41.972Z,41.90
2018-09-02T07:18:10.983Z,41.00
2018-09-02T07:20:40.013Z,40.20
2018-09-02T07:23:09.040Z,39.40
2018-09-02T07:25:38.004Z,39.10
2018-09-02T07:28:09.871Z,38.80
2018-09-02T07:30:38.933Z,38.80
2018-09-02T07:33:08.470Z,38.50
2018-09-02T07:35:37.551Z,39.10
2018-09-02T07:38:08.022Z,40.80
2018-09-02T07:40:37.340Z,42.90
2018-09-02T07:43:06.372Z,44.70
2018-09-02T07:45:35.790Z,46.30
2018-09-02T07:48:06.095Z,47.20
2018-09-02T07:50:35.180Z,48.60
2018-09-02T07:53:04.116Z,49.40
2018-09-02T07:55:33.217Z,49.90
2018-09-02T07:58:02.170Z,50.30
2018-09-02T08:00:32.053Z,51.20
2018-09-02T08:03:01.330Z,51.10
2018-09-02T08:07:59.086Z,51.80
2018-09-02T08:10:28.061Z,52.10
2018-09-02T08:12:57.363Z,52.70
2018-09-02T08:15:26.236Z,53.10
2018-09-02T08:17:55.166Z,52.20
2018-09-02T08:20:24.133Z,51.30
2018-09-02T08:22:53.128Z,50.90
2018-09-02T08:25:22.100Z,51.10
2018-09-02T08:27:51.445Z,51.70
2018-09-02T08:30:20.736Z,52.60
2018-09-02T08:32:50.013Z,55.10
2018-09-02T08:35:18.960Z,55.70
2018-09-02T08:37:47.885Z,56.70
2018-09-02T08:40:16.891Z,57.70
2018-09-02T08:42:45.837Z,58.30
2018-09-02T08:45:14.812Z,59.00
2018-09-02T08:47:43.742Z,59.00
2018-09-02T08:50:12.769Z,59.80
2018-09-02T08:52:41.705Z,60.30
2018-09-02T08:55:10.756Z,60.30
2018-09-02T08:57:39.704Z,59.90
2018-09-02T09:00:08.997Z,61.20
2018-09-02T09:02:37.929Z,60.00
2018-09-02T09:05:06.889Z,59.90
2018-09-02T09:07:36.007Z,60.20
2018-09-02T09:10:05.061Z,61.00
2018-09-02T09:12:33.997Z,61.10
2018-09-02T09:15:02.984Z,61.30
2018-09-02T09:17:31.986Z,60.50
2018-09-02T09:20:00.936Z,60.50
2018-09-02T09:22:29.911Z,60.90
2018-09-02T09:24:58.907Z,61.30
2018-09-02T09:27:27.962Z,60.80
2018-09-02T09:29:56.972Z,60.80
2018-09-02T09:32:25.982Z,62.00
2018-09-02T09:34:55.988Z,61.00
2018-09-02T09:37:24.944Z,60.70
2018-09-02T09:39:53.924Z,60.20
2018-09-02T09:42:22.889Z,58.90
2018-09-02T09:44:51.905Z,59.70
2018-09-02T09:47:20.901Z,59.50
2018-09-02T09:49:49.888Z,60.50
2018-09-02T09:52:19.689Z,61.10
2018-09-02T09:54:48.609Z,58.60
2018-09-02T09:57:18.192Z,59.30
2018-09-02T09:59:47.124Z,59.80
2018-09-02T10:02:16.084Z,60.20
2018-09-02T10:04:45.024Z,60.90
2018-09-02T10:07:13.986Z,62.20
2018-09-02T10:09:42.981Z,61.90
2018-09-02T10:12:11.916Z,62.60
2018-09-02T10:14:40.849Z,63.60
2018-09-02T10:17:10.344Z,63.40
2018-09-02T10:19:39.257Z,63.90
2018-09-02T10:22:08.221Z,63.40
2018-09-02T10:24:37.204Z,63.60
2018-09-02T10:27:06.256Z,64.20
2018-09-02T10:29:35.251Z,64.30
2018-09-02T10:32:05.609Z,64.60
2018-09-02T10:34:34.531Z,64.80
2018-09-02T10:37:03.530Z,64.50
2018-09-02T10:39:34.761Z,64.10
2018-09-02T10:42:03.720Z,63.30
2018-09-02T10:44:33.161Z,63.10
2018-09-02T10:47:02.089Z,63.90
2018-09-02T10:49:31.097Z,63.20
2018-09-02T10:52:00.045Z,63.90
2018-09-02T10:54:29.035Z,64.00
2018-09-02T10:56:58.061Z,64.10
2018-09-02T10:59:27.078Z,64.10
2018-09-02T11:01:56.099Z,64.10
2018-09-02T11:04:25.185Z,64.40
2018-09-02T11:06:54.202Z,65.00
2018-09-02T11:09:23.174Z,64.20
2018-09-02T11:11:52.234Z,63.00
2018-09-02T11:14:21.226Z,61.70
2018-09-02T11:16:50.250Z,59.80
2018-09-02T11:19:19.230Z,61.00
2018-09-02T11:21:48.258Z,61.60
2018-09-02T11:24:17.274Z,62.30
2018-09-02T11:26:46.243Z,62.30
2018-09-02T11:29:15.276Z,62.50
2018-09-02T11:31:44.283Z,63.00
2018-09-02T11:34:13.289Z,63.00
2018-09-02T11:36:43.526Z,63.60
2018-09-02T11:39:13.367Z,63.70
2018-09-02T11:41:42.342Z,63.30
2018-09-02T11:44:11.328Z,63.70
2018-09-02T11:46:40.313Z,63.50
2018-09-02T11:49:09.356Z,63.70
2018-09-02T11:51:38.358Z,63.90
2018-09-02T11:56:47.098Z,63.90
2018-09-02T11:59:16.057Z,64.20
2018-09-02T12:01:45.021Z,64.40
2018-09-02T12:04:17.265Z,64.60
2018-09-02T12:06:46.221Z,64.70
2018-09-02T12:09:15.207Z,64.70
2018-09-02T12:11:44.215Z,64.90
2018-09-02T12:14:13.169Z,64.60
2018-09-02T12:16:42.126Z,64.70
2018-09-02T12:19:11.214Z,64.80
2018-09-02T12:21:40.214Z,65.00
2018-09-02T12:24:09.229Z,64.80
2018-09-02T12:26:38.177Z,64.70
2018-09-02T12:29:07.181Z,64.80
2018-09-02T12:31:36.252Z,64.90
2018-09-02T12:34:05.181Z,65.20
2018-09-02T12:36:34.126Z,65.30
2018-09-02T12:39:03.210Z,65.50
2018-09-02T12:41:32.163Z,65.50
2018-09-02T12:44:01.164Z,65.80
2018-09-02T12:46:30.126Z,65.20
2018-09-02T12:48:59.091Z,65.70
2018-09-02T12:51:28.079Z,65.40
2018-09-02T12:53:57.149Z,65.10
2018-09-02T12:56:26.116Z,65.30
2018-09-02T12:58:55.110Z,65.70
2018-09-02T13:01:24.255Z,66.10
2018-09-02T13:03:53.322Z,65.00
2018-09-02T13:06:22.345Z,65.40
2018-09-02T13:08:51.323Z,65.30
2018-09-02T13:11:20.355Z,65.70
2018-09-02T13:13:49.334Z,65.70
2018-09-02T13:16:18.306Z,65.30
2018-09-02T13:18:47.471Z,65.40
2018-09-02T13:21:16.433Z,65.80
2018-09-02T13:23:45.457Z,65.60
2018-09-02T13:26:15.376Z,65.80
2018-09-02T13:28:44.774Z,65.30
2018-09-02T13:31:18.750Z,65.00
2018-09-02T13:33:47.835Z,65.50
2018-09-02T13:36:16.778Z,65.90
2018-09-02T13:38:45.846Z,65.80
2018-09-02T13:41:15.525Z,65.90
2018-09-02T13:43:44.515Z,65.20
2018-09-02T13:46:13.642Z,65.10
2018-09-02T13:48:42.695Z,64.80
2018-09-02T13:51:11.723Z,65.40
2018-09-02T13:53:40.713Z,65.90
2018-09-02T13:56:09.768Z,66.50
2018-09-02T13:58:39.048Z,66.60
2018-09-02T14:01:08.623Z,66.70
2018-09-02T14:03:40.044Z,66.90
2018-09-02T14:06:09.046Z,67.10
2018-09-02T14:08:37.982Z,66.60
2018-09-02T14:11:06.920Z,66.60
2018-09-02T14:13:36.795Z,65.60
2018-09-02T14:16:05.765Z,66.10
2018-09-02T14:18:34.682Z,66.90
2018-09-02T14:21:03.761Z,67.20
2018-09-02T14:23:32.758Z,67.20
2018-09-02T14:26:01.741Z,67.60
2018-09-02T14:28:31.068Z,68.70
2018-09-02T14:31:00.229Z,69.20
2018-09-02T14:33:29.430Z,69.50
2018-09-02T14:35:58.746Z,69.80
2018-09-02T14:38:27.769Z,70.20
2018-09-02T14:40:56.797Z,70.50
2018-09-02T14:43:25.780Z,70.60
2018-09-02T14:45:54.728Z,71.20
2018-09-02T14:48:23.739Z,71.20
2018-09-02T14:50:52.821Z,71.40
2018-09-02T14:53:21.663Z,71.50
2018-09-02T14:55:50.600Z,71.40
2018-09-02T14:58:19.550Z,71.80
2018-09-02T15:00:48.592Z,72.10
2018-09-02T15:03:17.843Z,71.80
2018-09-02T15:05:47.174Z,71.90
2018-09-02T15:08:16.566Z,72.10
2018-09-02T15:10:45.790Z,72.40
2018-09-02T15:13:17.476Z,73.20
2018-09-02T15:15:46.538Z,72.00
2018-09-02T15:18:15.457Z,71.40
2018-09-02T15:20:44.475Z,71.60
2018-09-02T15:23:13.404Z,72.10
2018-09-02T15:25:42.401Z,72.20
2018-09-02T15:28:11.344Z,72.20
2018-09-02T15:30:40.332Z,72.10
2018-09-02T15:33:09.239Z,72.10
2018-09-02T15:35:38.209Z,72.00
2018-09-02T15:38:07.172Z,71.60
2018-09-02T15:40:55.664Z,71.40
2018-09-02T15:43:24.579Z,71.60
2018-09-02T15:45:53.519Z,71.50
2018-09-02T15:48:22.426Z,71.80
2018-09-02T15:50:51.358Z,72.10
2018-09-02T15:53:20.387Z,72.30
2018-09-02T15:55:51.084Z,72.20
2018-09-02T15:58:20.021Z,72.50
2018-09-02T16:00:49.040Z,72.70
2018-09-02T16:03:17.943Z,72.60
2018-09-02T16:05:46.925Z,72.70
2018-09-02T16:08:15.889Z,73.00
2018-09-02T16:10:44.786Z,73.00
2018-09-02T16:13:16.324Z,73.10
2018-09-02T16:15:45.246Z,73.40
2018-09-02T16:18:14.182Z,73.50
2018-09-02T16:20:43.106Z,73.60
2018-09-02T16:23:12.035Z,73.90
2018-09-02T16:25:42.897Z,73.90
2018-09-02T16:28:11.847Z,74.40
2018-09-02T16:30:40.753Z,74.60
2018-09-02T16:33:09.668Z,75.00
2018-09-02T16:35:38.592Z,75.30
2018-09-02T16:38:07.560Z,75.60
2018-09-02T16:40:36.494Z,75.50
2018-09-02T16:43:05.679Z,75.60
2018-09-02T16:45:34.600Z,75.50
2018-09-02T16:48:03.640Z,75.50
2018-09-02T16:50:33.657Z,75.20
2018-09-02T16:53:02.661Z,74.80
2018-09-02T16:55:31.575Z,75.00
2018-09-02T16:58:00.539Z,75.10
2018-09-02T17:00:29.456Z,75.00
2018-09-02T17:02:58.753Z,74.90
2018-09-02T17:05:27.669Z,75.20
2018-09-02T17:07:56.676Z,75.70
2018-09-02T17:10:25.595Z,75.90
2018-09-02T17:12:54.633Z,76.20
2018-09-02T17:15:23.496Z,76.10
2018-09-02T17:17:52.537Z,76.30
2018-09-02T17:20:24.921Z,76.30
2018-09-02T17:22:58.085Z,76.70
2018-09-02T17:25:27.068Z,76.40
2018-09-02T17:27:56.022Z,76.70
2018-09-02T17:30:32.206Z,77.10
2018-09-02T17:33:01.313Z,77.40
2018-09-02T17:35:30.423Z,77.40
2018-09-02T17:37:59.381Z,77.70
2018-09-02T17:40:28.379Z,77.80
2018-09-02T17:42:57.748Z,78.20
2018-09-02T17:45:26.681Z,78.40
2018-09-02T17:47:56.052Z,78.20
2018-09-02T17:50:24.974Z,78.20
2018-09-02T17:52:53.893Z,78.50
2018-09-02T17:55:23.150Z,78.80
2018-09-02T17:57:52.912Z,78.90
2018-09-02T18:00:27.798Z,79.20
2018-09-02T18:02:56.903Z,79.50
2018-09-02T18:05:25.871Z,79.60
2018-09-02T18:07:55.555Z,79.90
2018-09-02T18:10:24.534Z,80.30
2018-09-02T18:12:53.524Z,80.40
2018-09-02T18:15:22.547Z,80.90
2018-09-02T18:17:51.618Z,81.00
2018-09-02T18:20:21.348Z,80.90
2018-09-02T18:22:50.353Z,81.60
2018-09-02T18:25:21.229Z,81.70
2018-09-02T18:27:53.449Z,82.30
2018-09-02T18:30:27.132Z,81.70
2018-09-02T18:32:56.656Z,81.90
2018-09-02T18:35:25.809Z,82.10
2018-09-02T18:37:55.040Z,82.20
2018-09-02T18:40:24.453Z,82.30
2018-09-02T18:42:53.742Z,82.50
2018-09-02T18:45:22.976Z,82.30
2018-09-02T18:47:52.362Z,82.90
2018-09-02T18:50:21.943Z,83.40
2018-09-02T18:52:51.794Z,83.70
2018-09-02T18:55:21.660Z,83.70
2018-09-02T18:57:52.306Z,84.10
2018-09-02T19:00:21.719Z,84.20
2018-09-02T19:02:51.116Z,84.60
2018-09-02T19:05:20.568Z,85.20
2018-09-02T19:07:52.325Z,85.30
2018-09-02T19:10:25.464Z,85.70
2018-09-02T19:15:46.090Z,86.10
2018-09-02T19:18:19.760Z,86.30
2018-09-02T19:20:48.912Z,86.60
2018-09-02T19:23:19.183Z,87.20
2018-09-02T19:25:49.273Z,87.40
2018-09-02T19:28:24.623Z,87.80
2018-09-02T19:30:54.256Z,88.30
2018-09-02T19:33:23.591Z,88.50
2018-09-02T19:35:52.767Z,88.80
2018-09-02T19:38:22.096Z,88.90
2018-09-02T19:41:00.991Z,89.00
2018-09-02T19:43:32.083Z,89.00
2018-09-02T19:46:01.403Z,89.30
2018-09-02T19:48:30.700Z,89.40
2018-09-02T19:51:00.625Z,89.80
2018-09-02T19:53:30.287Z,90.00
2018-09-02T19:55:59.559Z,90.00
2018-09-02T19:58:28.821Z,90.20
2018-09-02T20:00:59.930Z,90.30
2018-09-02T20:03:29.199Z,90.40
2018-09-02T20:05:58.994Z,90.50
2018-09-02T20:08:30.085Z,90.70
2018-09-02T20:11:00.134Z,90.80
2018-09-02T20:13:31.014Z,91.00
2018-09-02T20:16:00.685Z,91.20
2018-09-02T20:18:29.875Z,91.30
2018-09-02T20:20:59.311Z,91.40
2018-09-02T20:23:28.468Z,91.40
2018-09-02T20:25:57.739Z,91.50
2018-09-02T20:28:26.994Z,91.50
2018-09-02T20:30:56.435Z,91.50
2018-09-02T20:33:25.638Z,91.60
2018-09-02T20:35:54.900Z,91.90
2018-09-02T20:38:24.014Z,92.30
2018-09-02T20:40:53.257Z,92.10
2018-09-02T20:43:22.462Z,92.20
2018-09-02T20:45:51.618Z,92.40
2018-09-02T20:48:20.776Z,92.50
2018-09-02T20:50:50.453Z,92.60
2018-09-02T20:53:21.639Z,92.80
2018-09-02T20:55:51.403Z,93.00
2018-09-02T20:58:21.295Z,93.10
2018-09-02T21:00:50.573Z,93.30
2018-09-02T21:03:19.722Z,93.30
2018-09-02T21:05:48.967Z,93.30
2018-09-02T21:08:18.132Z,93.30
2018-09-02T21:10:47.322Z,93.30
2018-09-02T21:13:16.474Z,93.30
2018-09-02T21:15:45.703Z,93.30
2018-09-02T21:18:14.906Z,93.30
2018-09-02T21:20:44.191Z,93.80
2018-09-02T21:23:13.443Z,94.10
2018-09-02T21:25:42.598Z,94.40
2018-09-02T21:28:11.755Z,94.50
2018-09-02T21:30:40.985Z,94.60
2018-09-02T21:33:10.147Z,94.60
2018-09-02T21:35:39.746Z,94.60
2018-09-02T21:38:08.898Z,94.50
2018-09-02T21:40:41.319Z,94.50
2018-09-02T21:43:10.560Z,94.50
2018-09-02T21:45:39.731Z,94.50
2018-09-02T21:48:08.898Z,94.60
2018-09-02T21:50:38.278Z,94.60
2018-09-02T21:53:07.652Z,94.50
2018-09-02T21:55:36.814Z,94.40
2018-09-02T21:58:06.022Z,94.50
2018-09-02T22:00:35.176Z,94.50
2018-09-02T22:03:07.850Z,94.60
2018-09-02T22:05:37.132Z,94.40
2018-09-02T22:08:06.374Z,94.40
2018-09-02T22:10:36.226Z,94.30
2018-09-02T22:13:05.490Z,94.20
2018-09-02T22:15:34.639Z,94.40
2018-09-02T22:18:04.446Z,94.50
2018-09-02T22:20:33.602Z,94.50
2018-09-02T22:23:02.758Z,94.80
2018-09-02T22:25:31.949Z,95.00
2018-09-02T22:28:04.616Z,95.10
2018-09-02T22:30:33.759Z,95.00
2018-09-02T22:33:02.918Z,95.10
2018-09-02T22:35:32.058Z,95.10
2018-09-02T22:38:01.246Z,95.20
2018-09-02T22:40:31.252Z,95.20
2018-09-02T22:43:00.431Z,95.20
2018-09-02T22:45:29.581Z,95.20
2018-09-02T22:48:00.423Z,95.30
2018-09-02T22:50:29.623Z,95.30
2018-09-02T22:52:58.787Z,95.40
2018-09-02T22:55:27.962Z,95.40
2018-09-02T22:57:57.741Z,95.30
2018-09-02T23:00:31.615Z,95.40
2018-09-02T23:03:00.776Z,95.40
2018-09-02T23:05:29.958Z,95.40
2018-09-02T23:07:59.159Z,95.30
2018-09-02T23:10:28.349Z,95.30
2018-09-02T23:12:57.542Z,95.10
2018-09-02T23:15:26.707Z,95.20
2018-09-02T23:17:57.169Z,95.20
2018-09-02T23:20:26.342Z,95.30
2018-09-02T23:22:55.567Z,95.30
2018-09-02T23:25:24.744Z,95.40
2018-09-02T23:27:53.894Z,95.60
2018-09-02T23:30:23.840Z,95.70
2018-09-02T23:32:53.120Z,95.70
2018-09-02T23:35:22.248Z,95.70
2018-09-02T23:37:51.431Z,95.70
2018-09-02T23:40:20.571Z,95.70
2018-09-02T23:42:49.759Z,95.50
2018-09-02T23:45:18.951Z,95.50
2018-09-02T23:47:48.158Z,95.40
2018-09-02T23:50:17.315Z,95.50
2018-09-02T23:52:47.352Z,95.40
2018-09-02T23:55:16.522Z,95.20
2018-09-02T23:57:45.736Z,95.20
